createdAt,value
2023-05-20T00:04:09.233Z,58.5
2023-05-20T00:16:08.945Z,59
2023-05-20T00:28:08.880Z,59
2023-05-20T00:40:09.006Z,59
2023-05-20T00:52:08.991Z,59
2023-05-20T01:04:08.950Z,59
2023-05-20T01:16:08.933Z,59
2023-05-20T01:28:09.031Z,59
2023-05-20T01:40:09.121Z,59
2023-05-20T01:52:08.941Z,59
2023-05-20T02:04:08.957Z,59
2023-05-20T02:16:09.089Z,59
2023-05-20T02:28:09.033Z,59
2023-05-20T02:40:08.978Z,59
2023-05-20T02:52:09.165Z,59
2023-05-20T03:04:09.161Z,59
2023-05-20T03:16:09.112Z,59.5
2023-05-20T03:28:09.005Z,59.5
2023-05-20T03:40:09.212Z,59.5
2023-05-20T03:52:09.124Z,59.5
2023-05-20T04:04:09.244Z,59.5
2023-05-20T04:16:09.039Z,59.5
2023-05-20T04:28:09.218Z,59.5
2023-05-20T04:40:09.162Z,59.5
2023-05-20T04:52:09.144Z,59.5
2023-05-20T05:04:09.383Z,59
2023-05-20T05:16:09.374Z,59
2023-05-20T05:28:09.191Z,59
2023-05-20T05:40:09.210Z,59
2023-05-20T05:52:09.288Z,59
2023-05-20T06:04:09.331Z,59
2023-05-20T06:16:09.225Z,59
2023-05-20T06:28:09.415Z,59
2023-05-20T06:40:09.338Z,59
2023-05-20T06:52:09.305Z,59
2023-05-20T07:04:09.304Z,59
2023-05-20T07:16:09.484Z,59
2023-05-20T07:28:09.366Z,59
2023-05-20T07:40:09.344Z,58.5
2023-05-20T07:52:09.275Z,58.5
2023-05-20T08:04:09.643Z,58.5
2023-05-20T08:16:09.381Z,58
2023-05-20T08:28:09.376Z,58
2023-05-20T08:40:09.288Z,58
2023-05-20T08:52:09.509Z,54
2023-05-20T09:04:09.404Z,52.5
2023-05-20T09:16:09.563Z,52
2023-05-20T09:28:09.698Z,51
2023-05-20T09:40:09.978Z,49
2023-05-20T09:52:09.682Z,47.5
2023-05-20T10:04:09.615Z,46
2023-05-20T10:16:09.451Z,47
2023-05-20T10:28:09.689Z,47
2023-05-20T10:40:09.616Z,47.5
2023-05-20T10:52:09.562Z,48
2023-05-20T11:04:09.832Z,48
2023-05-20T11:16:09.874Z,47
2023-05-20T11:28:09.561Z,46.5
2023-05-20T11:40:09.621Z,44.5
2023-05-20T11:52:09.665Z,46
2023-05-20T12:04:09.769Z,44
2023-05-20T12:16:09.610Z,42
2023-05-20T12:28:09.575Z,43
2023-05-20T12:40:09.746Z,42
2023-05-20T12:52:15.401Z,40.5
2023-05-20T13:04:09.616Z,39
2023-05-20T13:16:09.817Z,39
2023-05-20T13:28:09.734Z,38.5
2023-05-20T13:40:09.746Z,38
2023-05-20T13:52:09.653Z,39.5
2023-05-20T14:04:09.849Z,40
2023-05-20T14:16:09.827Z,41
2023-05-20T14:28:09.739Z,41
2023-05-20T14:40:09.692Z,40.5
2023-05-20T14:52:09.857Z,40.5
2023-05-20T15:04:09.789Z,39.5
2023-05-20T15:16:09.948Z,38.5
2023-05-20T15:28:09.897Z,37
2023-05-20T15:40:09.962Z,37.5
2023-05-20T15:52:09.816Z,37
2023-05-20T16:04:09.861Z,36.5
2023-05-20T16:16:09.964Z,37
2023-05-20T16:28:10.203Z,38
2023-05-20T16:40:10.085Z,39.5
2023-05-20T16:52:10.032Z,42
2023-05-20T17:04:10.120Z,43.5
2023-05-20T17:16:10.195Z,45
2023-05-20T17:28:10.008Z,45
2023-05-20T17:40:10.215Z,42
2023-05-20T17:52:10.127Z,42
2023-05-20T18:04:10.090Z,42.5
2023-05-20T18:16:10.087Z,45
2023-05-20T18:28:10.139Z,46
2023-05-20T18:40:10.331Z,46.5
2023-05-20T18:52:10.082Z,47.5
2023-05-20T19:04:10.031Z,44.5
2023-05-20T19:16:10.328Z,45.5
2023-05-20T19:28:10.188Z,46
2023-05-20T19:40:10.304Z,46.5
2023-05-20T19:52:09.990Z,47.5
2023-05-20T20:04:10.192Z,47.5
2023-05-20T20:16:10.144Z,48
2023-05-20T20:28:10.095Z,48.5
2023-05-20T20:40:10.064Z,48.5
2023-05-20T20:52:10.219Z,48.5
2023-05-20T21:04:10.166Z,49
2023-05-20T21:16:10.191Z,55
2023-05-20T21:28:10.084Z,51.5
2023-05-20T21:40:10.290Z,51
2023-05-20T21:52:10.189Z,51.5
2023-05-20T22:04:10.225Z,52
2023-05-20T22:16:10.332Z,52.5
2023-05-20T22:28:10.302Z,52.5
2023-05-20T22:40:10.242Z,52.5
2023-05-20T22:52:10.203Z,52
2023-05-20T23:04:10.367Z,52
2023-05-20T23:16:10.381Z,52
2023-05-20T23:28:10.370Z,52
2023-05-20T23:40:10.261Z,52
2023-05-20T23:52:10.391Z,52
